createdAt,value
2022-12-18T00:02:02.013Z,101792.81
2022-12-18T00:05:09.696Z,101790.41
2022-12-18T00:08:15.510Z,101792.87
2022-12-18T00:11:23.053Z,101809.31
2022-12-18T00:14:27.254Z,101819.25
2022-12-18T00:17:35.323Z,101832.78
2022-12-18T00:20:42.279Z,101839.87
2022-12-18T00:23:50.033Z,101841.13
2022-12-18T00:26:56.912Z,101851.28
2022-12-18T00:30:04.604Z,101863.47
2022-12-18T00:33:10.581Z,101871.25
2022-12-18T00:36:20.115Z,101870.97
2022-12-18T00:39:24.386Z,101860.78
2022-12-18T00:42:49.804Z,101864.34
2022-12-18T00:45:57.800Z,101870.28
2022-12-18T00:49:04.872Z,101872.16
2022-12-18T00:52:10.894Z,101870.53
2022-12-18T00:55:18.485Z,101869.69
2022-12-18T00:58:25.737Z,101874.13
2022-12-18T01:01:33.139Z,101876.56
2022-12-18T01:04:40.317Z,101886.31
2022-12-18T01:07:45.716Z,101892.34
2022-12-18T01:10:51.503Z,101900.12
2022-12-18T01:13:59.354Z,101908.78
2022-12-18T01:17:06.138Z,101908.13
2022-12-18T01:20:12.984Z,101909.75
2022-12-18T01:23:20.268Z,101913.22
2022-12-18T01:26:27.373Z,101912.31
2022-12-18T01:29:35.056Z,101909.78
2022-12-18T01:32:43.527Z,101917.56
2022-12-18T01:35:49.980Z,101914.09
2022-12-18T01:38:58.114Z,101920.25
2022-12-18T01:42:06.041Z,101924.69
2022-12-18T01:45:14.321Z,101923.88
2022-12-18T01:48:21.032Z,101936.84
2022-12-18T01:51:28.704Z,101932.69
2022-12-18T01:54:35.869Z,101939.09
2022-12-18T01:57:44.102Z,101944.38
2022-12-18T02:00:49.777Z,101939.31
2022-12-18T02:04:20.371Z,101953.03
2022-12-18T02:07:32.153Z,101944.50
2022-12-18T02:10:46.405Z,101942.84
2022-12-18T02:14:02.948Z,101949.31
2022-12-18T02:17:13.560Z,101960.56
2022-12-18T02:20:22.413Z,101963.25
2022-12-18T02:23:30.350Z,101971.19
2022-12-18T02:26:37.964Z,101973.19
2022-12-18T02:29:58.773Z,101970.66
2022-12-18T02:33:09.449Z,101978.56
2022-12-18T02:36:20.301Z,101984.44
2022-12-18T02:39:30.935Z,101982.75
2022-12-18T02:42:37.790Z,101991.22
2022-12-18T02:45:53.350Z,101985.50
2022-12-18T02:49:10.418Z,101988.00
2022-12-18T02:52:20.972Z,101995.91
2022-12-18T02:55:39.956Z,101997.94
2022-12-18T02:59:03.271Z,102013.28
2022-12-18T03:02:16.173Z,102016.72
2022-12-18T03:05:25.901Z,102016.91
2022-12-18T03:08:32.652Z,102018.50
2022-12-18T03:12:00.543Z,102026.47
2022-12-18T03:15:17.928Z,102025.38
2022-12-18T03:18:38.287Z,102032.69
2022-12-18T03:21:49.135Z,102035.19
2022-12-18T03:24:57.792Z,102039.56
2022-12-18T03:28:07.249Z,102039.75
2022-12-18T03:31:14.674Z,102046.75
2022-12-18T03:34:25.049Z,102047.47
2022-12-18T03:37:34.597Z,102057.63
2022-12-18T03:40:42.750Z,102058.81
2022-12-18T03:43:53.843Z,102066.63
2022-12-18T03:47:08.005Z,102073.66
2022-12-18T03:50:29.280Z,102073.75
2022-12-18T03:53:55.214Z,102066.88
2022-12-18T03:57:07.597Z,102073.00
2022-12-18T04:00:15.095Z,102069.00
2022-12-18T04:03:30.730Z,102076.28
2022-12-18T04:06:38.368Z,102069.81
2022-12-18T04:09:47.663Z,102079.75
2022-12-18T04:12:58.097Z,102085.59
2022-12-18T04:16:05.654Z,102098.09
2022-12-18T04:19:13.861Z,102091.56
2022-12-18T04:22:21.226Z,102093.22
2022-12-18T04:25:32.487Z,102087.34
2022-12-18T04:28:42.483Z,102095.03
2022-12-18T04:31:49.180Z,102094.37
2022-12-18T04:34:56.739Z,102091.03
2022-12-18T04:38:02.505Z,102090.38
2022-12-18T04:41:11.998Z,102102.06
2022-12-18T04:44:19.442Z,102102.19
2022-12-18T04:47:25.034Z,102115.09
2022-12-18T04:50:31.846Z,102112.41
2022-12-18T04:53:41.146Z,102130.12
2022-12-18T04:56:46.937Z,102132.06
2022-12-18T04:59:53.558Z,102129.78
2022-12-18T05:03:01.376Z,102131.69
2022-12-18T05:06:09.702Z,102135.28
2022-12-18T05:09:16.337Z,102141.00
2022-12-18T05:12:23.914Z,102135.03
2022-12-18T05:15:31.378Z,102141.84
2022-12-18T05:18:40.870Z,102156.03
2022-12-18T05:21:46.786Z,102152.03
2022-12-18T05:24:55.435Z,102145.94
2022-12-18T05:28:01.411Z,102154.44
2022-12-18T05:31:09.895Z,102164.16
2022-12-18T05:34:16.767Z,102171.97
2022-12-18T05:37:24.121Z,102166.69
2022-12-18T05:40:33.280Z,102174.66
2022-12-18T05:43:41.828Z,102175.50
2022-12-18T05:46:51.534Z,102174.53
2022-12-18T05:49:59.465Z,102186.47
2022-12-18T05:53:05.294Z,102176.16
2022-12-18T05:56:16.077Z,102186.53
2022-12-18T05:59:22.195Z,102196.13
2022-12-18T06:02:31.084Z,102198.50
2022-12-18T06:05:39.710Z,102198.66
2022-12-18T06:08:46.884Z,102206.59
2022-12-18T06:11:55.334Z,102204.84
2022-12-18T06:15:02.312Z,102214.34
2022-12-18T06:18:09.660Z,102201.22
2022-12-18T06:21:16.284Z,102203.59
2022-12-18T06:24:23.745Z,102212.19
2022-12-18T06:27:30.794Z,102207.34
2022-12-18T06:30:37.915Z,102216.69
2022-12-18T06:33:45.033Z,102216.81
2022-12-18T06:36:55.811Z,102229.63
2022-12-18T06:40:01.080Z,102232.81
2022-12-18T06:43:10.860Z,102231.88
2022-12-18T06:46:17.385Z,102240.37
2022-12-18T06:49:30.249Z,102254.25
2022-12-18T06:52:39.908Z,102252.59
2022-12-18T06:55:46.881Z,102266.59
2022-12-18T06:58:54.746Z,102268.41
2022-12-18T07:02:01.872Z,102271.38
2022-12-18T07:05:10.953Z,102272.38
2022-12-18T07:08:19.501Z,102280.00
2022-12-18T07:11:26.044Z,102284.37
2022-12-18T07:14:34.986Z,102292.88
2022-12-18T07:17:41.401Z,102303.12
2022-12-18T07:20:49.203Z,102298.75
2022-12-18T07:23:57.427Z,102307.94
2022-12-18T07:27:05.143Z,102309.66
2022-12-18T07:30:16.791Z,102316.56
2022-12-18T07:33:23.966Z,102322.63
2022-12-18T07:36:31.891Z,102325.91
2022-12-18T07:39:39.702Z,102338.78
2022-12-18T07:42:45.638Z,102332.66
2022-12-18T07:45:54.190Z,102342.16
2022-12-18T07:49:01.978Z,102343.88
2022-12-18T07:52:10.037Z,102353.38
2022-12-18T07:55:16.855Z,102355.87
2022-12-18T07:58:26.863Z,102354.22
2022-12-18T08:01:34.620Z,102363.66
2022-12-18T08:04:41.091Z,102372.16
2022-12-18T08:07:46.763Z,102370.38
2022-12-18T08:10:53.529Z,102370.31
2022-12-18T08:14:01.077Z,102378.78
2022-12-18T08:17:07.816Z,102385.59
2022-12-18T08:20:13.023Z,102387.00
2022-12-18T08:23:19.158Z,102393.75
2022-12-18T08:26:25.309Z,102395.16
2022-12-18T08:29:32.631Z,102398.44
2022-12-18T08:32:39.023Z,102395.87
2022-12-18T08:35:46.095Z,102397.72
2022-12-18T08:38:53.065Z,102401.03
2022-12-18T08:42:21.067Z,102402.84
2022-12-18T08:45:26.801Z,102396.53
2022-12-18T08:48:34.687Z,102400.56
2022-12-18T08:51:41.417Z,102400.44
2022-12-18T08:54:50.284Z,102402.31
2022-12-18T08:57:59.555Z,102411.88
2022-12-18T09:01:09.388Z,102415.25
2022-12-18T09:04:15.342Z,102415.84
2022-12-18T09:07:20.350Z,102421.25
2022-12-18T09:10:25.332Z,102429.72
2022-12-18T09:13:33.047Z,102432.31
2022-12-18T09:16:40.323Z,102443.44
2022-12-18T09:19:49.109Z,102446.72
2022-12-18T09:22:54.139Z,102441.59
2022-12-18T09:26:04.683Z,102430.03
2022-12-18T09:29:11.122Z,102434.13
2022-12-18T09:32:22.160Z,102432.50
2022-12-18T09:35:30.358Z,102427.56
2022-12-18T09:38:39.330Z,102424.09
2022-12-18T09:41:49.361Z,102432.25
2022-12-18T09:44:55.490Z,102429.63
2022-12-18T09:48:03.712Z,102428.97
2022-12-18T09:51:13.661Z,102419.63
2022-12-18T09:54:23.243Z,102432.44
2022-12-18T09:57:30.569Z,102428.22
2022-12-18T10:00:34.772Z,102423.47
2022-12-18T10:03:40.866Z,102424.34
2022-12-18T10:06:46.980Z,102432.53
2022-12-18T10:09:57.372Z,102430.91
2022-12-18T10:13:17.480Z,102425.31
2022-12-18T10:16:27.833Z,102429.44
2022-12-18T10:19:51.823Z,102425.91
2022-12-18T10:23:04.401Z,102420.37
2022-12-18T10:26:10.433Z,102421.22
2022-12-18T10:29:17.581Z,102423.06
2022-12-18T10:32:24.657Z,102422.41
2022-12-18T10:35:32.275Z,102411.97
2022-12-18T10:38:42.740Z,102414.28
2022-12-18T10:41:47.930Z,102409.47
2022-12-18T10:45:03.359Z,102412.09
2022-12-18T10:48:19.912Z,102408.09
2022-12-18T10:51:27.076Z,102418.00
2022-12-18T10:54:36.805Z,102416.25
2022-12-18T10:57:43.630Z,102413.66
2022-12-18T11:01:03.876Z,102410.13
2022-12-18T11:04:13.405Z,102413.72
2022-12-18T11:07:18.966Z,102403.94
2022-12-18T11:10:33.967Z,102403.94
2022-12-18T11:13:40.067Z,102400.44
2022-12-18T11:17:03.136Z,102394.19
2022-12-18T11:20:32.248Z,102395.97
2022-12-18T11:23:39.047Z,102393.75
2022-12-18T11:26:46.106Z,102400.63
2022-12-18T11:29:52.457Z,102395.25
2022-12-18T11:33:04.940Z,102401.59
2022-12-18T11:36:11.827Z,102402.28
2022-12-18T11:39:20.349Z,102393.56
2022-12-18T11:42:27.566Z,102389.34
2022-12-18T11:45:37.428Z,102392.69
2022-12-18T11:48:51.567Z,102382.22
2022-12-18T11:52:06.582Z,102388.25
2022-12-18T11:55:16.934Z,102384.88
2022-12-18T11:58:40.525Z,102377.72
2022-12-18T12:01:55.125Z,102382.25
2022-12-18T12:05:21.238Z,102379.97
2022-12-18T12:08:39.637Z,102381.25
2022-12-18T12:12:04.951Z,102369.22
2022-12-18T12:15:25.875Z,102371.22
2022-12-18T12:18:39.567Z,102370.47
2022-12-18T12:21:50.543Z,102370.44
2022-12-18T12:25:15.101Z,102366.03
2022-12-18T12:28:36.449Z,102368.50
2022-12-18T12:31:40.365Z,102372.78
2022-12-18T12:34:46.480Z,102379.25
2022-12-18T12:38:14.305Z,102376.69
2022-12-18T12:41:39.334Z,102372.22
2022-12-18T12:44:55.659Z,102375.81
2022-12-18T12:48:05.487Z,102377.06
2022-12-18T12:51:30.610Z,102386.66
2022-12-18T12:54:37.865Z,102384.25
2022-12-18T12:57:48.930Z,102394.66
2022-12-18T13:01:17.260Z,102404.00
2022-12-18T13:04:41.829Z,102404.00
2022-12-18T13:08:12.061Z,102398.94
2022-12-18T13:11:57.861Z,102402.50
2022-12-18T13:15:24.333Z,102411.59
2022-12-18T13:18:35.761Z,102412.09
2022-12-18T13:21:42.530Z,102419.50
2022-12-18T13:24:49.408Z,102409.56
2022-12-18T13:28:17.073Z,102417.72
2022-12-18T13:31:25.289Z,102424.69
2022-12-18T13:34:31.556Z,102418.56
2022-12-18T13:37:42.829Z,102418.22
2022-12-18T13:40:50.807Z,102430.13
2022-12-18T13:44:01.297Z,102429.87
2022-12-18T13:47:07.007Z,102431.31
2022-12-18T13:50:34.060Z,102429.97
2022-12-18T13:53:54.977Z,102431.47
2022-12-18T13:57:01.622Z,102434.19
2022-12-18T14:00:34.785Z,102438.72
2022-12-18T14:03:38.338Z,102442.34
2022-12-18T14:06:45.865Z,102442.56
2022-12-18T14:10:01.993Z,102443.87
2022-12-18T14:13:22.222Z,102444.34
2022-12-18T14:16:27.881Z,102448.09
2022-12-18T14:19:34.541Z,102442.19
2022-12-18T14:22:45.102Z,102445.28
2022-12-18T14:25:51.520Z,102440.63
2022-12-18T14:29:01.635Z,102437.34
2022-12-18T14:32:17.812Z,102441.13
2022-12-18T14:35:24.464Z,102451.94
2022-12-18T14:38:41.489Z,102454.06
2022-12-18T14:41:50.404Z,102452.66
2022-12-18T14:45:14.881Z,102460.00
2022-12-18T14:48:22.833Z,102467.16
2022-12-18T14:51:28.952Z,102465.84
2022-12-18T14:54:37.475Z,102471.94
2022-12-18T14:57:45.266Z,102482.59
2022-12-18T15:00:54.240Z,102489.72
2022-12-18T15:04:02.347Z,102487.25
2022-12-18T15:07:24.753Z,102491.00
2022-12-18T15:10:35.535Z,102501.50
2022-12-18T15:13:43.326Z,102501.81
2022-12-18T15:16:54.257Z,102508.13
2022-12-18T15:20:05.559Z,102504.00
2022-12-18T15:23:19.425Z,102512.84
2022-12-18T15:26:24.904Z,102512.19
2022-12-18T15:29:30.295Z,102515.06
2022-12-18T15:32:40.311Z,102517.87
2022-12-18T15:35:47.837Z,102531.78
2022-12-18T15:38:54.992Z,102536.22
2022-12-18T15:42:21.179Z,102532.00
2022-12-18T15:45:27.401Z,102533.81
2022-12-18T15:48:33.148Z,102547.75
2022-12-18T15:51:42.865Z,102550.59
2022-12-18T15:55:07.881Z,102553.25
2022-12-18T15:58:14.726Z,102562.88
2022-12-18T16:01:22.593Z,102574.69
2022-12-18T16:04:28.600Z,102570.41
2022-12-18T16:07:36.052Z,102565.50
2022-12-18T16:10:44.769Z,102567.47
2022-12-18T16:13:54.126Z,102571.97
2022-12-18T16:17:02.532Z,102571.16
2022-12-18T16:20:11.724Z,102572.97
2022-12-18T16:23:22.399Z,102580.75
2022-12-18T16:26:26.725Z,102584.31
2022-12-18T16:29:33.714Z,102591.97
2022-12-18T16:32:39.381Z,102590.41
2022-12-18T16:35:46.263Z,102596.47
2022-12-18T16:38:53.285Z,102596.66
2022-12-18T16:41:59.531Z,102598.50
2022-12-18T16:45:08.153Z,102592.44
2022-12-18T16:48:16.517Z,102601.94
2022-12-18T16:51:25.008Z,102600.22
2022-12-18T16:54:32.543Z,102615.91
2022-12-18T16:57:39.373Z,102615.91
2022-12-18T17:00:47.515Z,102611.66
2022-12-18T17:03:56.957Z,102602.34
2022-12-18T17:07:03.541Z,102601.56
2022-12-18T17:10:10.191Z,102596.47
2022-12-18T17:13:24.172Z,102587.91
2022-12-18T17:16:30.605Z,102598.44
2022-12-18T17:19:39.771Z,102595.97
2022-12-18T17:22:47.241Z,102597.78
2022-12-18T17:25:55.872Z,102597.91
2022-12-18T17:29:00.556Z,102602.28
2022-12-18T17:32:06.653Z,102597.94
2022-12-18T17:35:12.840Z,102596.28
2022-12-18T17:38:20.358Z,102605.03
2022-12-18T17:41:26.221Z,102595.59
2022-12-18T17:44:33.226Z,102603.47
2022-12-18T17:47:38.312Z,102607.00
2022-12-18T17:50:45.250Z,102612.25
2022-12-18T17:53:50.565Z,102615.72
2022-12-18T17:56:59.151Z,102609.66
2022-12-18T18:00:06.890Z,102615.75
2022-12-18T18:03:13.706Z,102609.75
2022-12-18T18:06:21.324Z,102613.25
2022-12-18T18:09:26.483Z,102599.47
2022-12-18T18:12:54.337Z,102601.31
2022-12-18T18:16:00.800Z,102608.41
2022-12-18T18:19:10.203Z,102617.03
2022-12-18T18:22:18.703Z,102611.00
2022-12-18T18:25:26.422Z,102614.41
2022-12-18T18:28:34.169Z,102618.75
2022-12-18T18:31:42.961Z,102611.91
2022-12-18T18:34:49.810Z,102612.84
2022-12-18T18:37:58.122Z,102621.56
2022-12-18T18:41:05.118Z,102634.66
2022-12-18T18:44:13.620Z,102629.41
2022-12-18T18:47:21.338Z,102630.28
2022-12-18T18:50:28.234Z,102640.69
2022-12-18T18:53:41.501Z,102644.16
2022-12-18T18:57:19.490Z,102650.34
2022-12-18T19:00:20.247Z,102652.19
2022-12-18T19:03:28.394Z,102647.06
2022-12-18T19:06:34.438Z,102660.00
2022-12-18T19:09:39.825Z,102653.06
2022-12-18T19:13:05.279Z,102660.81
2022-12-18T19:16:12.798Z,102659.97
2022-12-18T19:19:22.692Z,102654.78
2022-12-18T19:22:30.318Z,102662.38
2022-12-18T19:25:40.303Z,102665.50
2022-12-18T19:28:46.721Z,102677.78
2022-12-18T19:31:55.206Z,102673.59
2022-12-18T19:35:04.163Z,102691.00
2022-12-18T19:38:10.014Z,102693.72
2022-12-18T19:41:21.276Z,102685.97
2022-12-18T19:44:27.672Z,102684.28
2022-12-18T19:47:36.209Z,102687.75
2022-12-18T19:50:43.419Z,102698.16
2022-12-18T19:53:54.969Z,102688.63
2022-12-18T19:57:04.405Z,102702.28
2022-12-18T20:00:16.900Z,102708.22
2022-12-18T20:03:32.135Z,102704.87
2022-12-18T20:06:46.976Z,102697.28
2022-12-18T20:10:02.561Z,102712.91
2022-12-18T20:13:11.253Z,102708.66
2022-12-18T20:16:18.209Z,102707.84
2022-12-18T20:19:23.901Z,102716.53
2022-12-18T20:22:32.816Z,102713.09
2022-12-18T20:25:42.129Z,102720.00
2022-12-18T20:28:50.832Z,102731.28
2022-12-18T20:31:58.582Z,102728.69
2022-12-18T20:35:07.548Z,102723.47
2022-12-18T20:38:15.534Z,102726.97
2022-12-18T20:41:22.563Z,102731.28
2022-12-18T20:44:27.865Z,102731.16
2022-12-18T20:47:32.791Z,102733.78
2022-12-18T20:50:39.217Z,102735.59
2022-12-18T20:53:46.775Z,102732.81
2022-12-18T20:56:54.003Z,102748.22
2022-12-18T21:00:00.348Z,102744.78
2022-12-18T21:03:07.371Z,102744.97
2022-12-18T21:06:16.743Z,102746.66
2022-12-18T21:09:25.566Z,102757.78
2022-12-18T21:12:46.272Z,102752.66
2022-12-18T21:16:04.843Z,102760.47
2022-12-18T21:19:16.772Z,102752.66
2022-12-18T21:22:24.079Z,102756.66
2022-12-18T21:25:31.748Z,102763.53
2022-12-18T21:28:40.352Z,102762.72
2022-12-18T21:31:47.867Z,102765.25
2022-12-18T21:34:55.455Z,102755.00
2022-12-18T21:38:04.325Z,102758.44
2022-12-18T21:41:31.633Z,102756.66
2022-12-18T21:44:41.836Z,102757.53
2022-12-18T21:47:48.502Z,102752.44
2022-12-18T21:50:53.576Z,102737.91
2022-12-18T21:53:56.498Z,102754.28
2022-12-18T21:57:02.604Z,102754.28
2022-12-18T22:00:08.265Z,102755.13
2022-12-18T22:03:18.154Z,102746.59
2022-12-18T22:06:27.291Z,102744.87
2022-12-18T22:09:32.391Z,102739.75
2022-12-18T22:12:44.429Z,102749.97
2022-12-18T22:15:52.455Z,102748.37
2022-12-18T22:18:59.064Z,102755.31
2022-12-18T22:22:07.184Z,102751.78
2022-12-18T22:25:15.474Z,102746.59
2022-12-18T22:28:39.409Z,102747.38
2022-12-18T22:31:46.847Z,102750.91
2022-12-18T22:34:54.791Z,102752.88
2022-12-18T22:38:01.944Z,102745.25
2022-12-18T22:41:09.920Z,102748.50
2022-12-18T22:44:18.859Z,102747.59
2022-12-18T22:47:29.728Z,102758.91
2022-12-18T22:50:38.169Z,102759.78
2022-12-18T22:53:43.690Z,102764.09
2022-12-18T22:56:51.679Z,102764.91
2022-12-18T22:59:56.284Z,102764.16
2022-12-18T23:03:04.560Z,102769.34
2022-12-18T23:06:15.992Z,102762.44
2022-12-18T23:09:26.728Z,102771.03
2022-12-18T23:12:39.887Z,102772.09
2022-12-18T23:15:45.869Z,102769.50
2022-12-18T23:18:57.607Z,102766.94
2022-12-18T23:22:11.549Z,102774.72
2022-12-18T23:25:18.484Z,102774.63
2022-12-18T23:28:28.243Z,102775.56
2022-12-18T23:31:36.357Z,102780.78
2022-12-18T23:34:45.165Z,102765.31
2022-12-18T23:37:59.124Z,102759.22
2022-12-18T23:41:16.103Z,102765.94
2022-12-18T23:44:22.221Z,102770.09
2022-12-18T23:47:28.506Z,102768.16
2022-12-18T23:50:35.992Z,102760.50
2022-12-18T23:53:44.096Z,102769.88
2022-12-18T23:56:49.031Z,102780.13
2022-12-18T23:59:57.324Z,102784.47
